Time;durP1;ratioP1;P1;durP2;ratioP2;P2;SDS_P1;SDS_P2;PMS_P1;PMS_P2;Temp;Humidity;BMP_temperature;BMP_pressure;BME280_temperature;BME280_humidity;BME280_pressure;Samples;Min_cycle;Max_cycle;Signal;HPM_P1;HPM_P2
2022/03/06 00:02:17;;;;;;;1.93;0.87;;;;;;;0.13;63.47;100918.95;1702414;83;21157;-71
2022/03/06 00:04:44;;;;;;;1.50;0.93;;;;;;;0.09;63.74;100922.73;1715721;83;21581;-64
2022/03/06 00:07:11;;;;;;;2.95;1.65;;;;;;;0.09;63.73;100915.70;1717705;83;21571;-64
2022/03/06 00:09:38;;;;;;;1.27;1.17;;;;;;;0.12;63.76;100918.13;1747169;82;21584;-64
2022/03/06 00:12:08;;;;;;;1.63;1.43;;;;;;;0.21;63.94;100919.28;1758458;81;21515;-64
2022/03/06 00:14:36;;;;;;;2.20;1.70;;;;;;;0.24;63.69;100917.73;1773069;81;21165;-65
2022/03/06 00:17:02;;;;;;;3.67;1.67;;;;;;;0.21;63.88;100914.48;1741946;82;21036;-65
2022/03/06 00:19:30;;;;;;;3.30;1.73;;;;;;;0.17;64.04;100917.34;1752202;81;21113;-65
2022/03/06 00:21:56;;;;;;;;;;;;;;;0.20;64.32;100911.03;1760906;81;21123;-64
2022/03/06 00:24:23;;;;;;;2.37;1.00;;;;;;;0.27;63.83;100918.84;1758192;81;20412;-66
2022/03/06 00:26:50;;;;;;;2.60;2.03;;;;;;;0.25;63.84;100914.66;1758472;81;20970;-66
2022/03/06 00:29:17;;;;;;;;;;;;;;;0.26;64.00;100904.52;1761329;81;21021;-70
2022/03/06 00:31:46;;;;;;;2.20;1.13;;;;;;;0.32;64.66;100906.70;1758169;80;20168;-64
2022/03/06 00:34:13;;;;;;;2.07;1.40;;;;;;;0.29;64.11;100909.56;1757959;81;20988;-65
2022/03/06 00:36:40;;;;;;;;;;;;;;;0.28;63.74;100911.33;1761420;81;21001;-64
2022/03/06 00:39:10;;;;;;;2.20;1.33;;;;;;;0.24;63.52;100914.28;1758684;80;20155;-64
2022/03/06 00:41:38;;;;;;;1.73;1.10;;;;;;;0.14;63.56;100907.54;1758409;81;22278;-70
2022/03/06 00:44:06;;;;;;;1.67;1.57;;;;;;;0.11;63.52;100915.13;1757618;81;21009;-64
2022/03/06 00:46:33;;;;;;;1.73;1.50;;;;;;;0.06;63.89;100918.56;1757242;81;21541;-69
2022/03/06 00:49:00;;;;;;;2.63;1.90;;;;;;;0.06;63.48;100917.25;1758259;81;21022;-65
2022/03/06 00:51:29;;;;;;;3.53;2.00;;;;;;;0.04;63.71;100917.83;1758698;81;21056;-66
2022/03/06 00:53:56;;;;;;;2.13;1.60;;;;;;;0.10;64.03;100913.46;1758186;81;21098;-68
2022/03/06 00:56:23;;;;;;;;;;;;;;;0.12;63.81;100918.13;1761316;81;21017;-64
2022/03/06 00:58:49;;;;;;;2.40;1.37;;;;;;;0.13;63.57;100922.44;1758413;81;20159;-64
2022/03/06 01:01:16;;;;;;;1.77;1.63;;;;;;;0.06;63.42;100914.63;1758382;81;21025;-68
2022/03/06 01:03:43;;;;;;;3.20;1.63;;;;;;;0.06;63.69;100917.70;1750986;81;21019;-65
2022/03/06 01:06:10;;;;;;;;;;;;;;;0.10;63.86;100917.88;1747631;81;22235;-65
2022/03/06 01:08:38;;;;;;;2.85;2.08;;;;;;;0.15;63.67;100919.23;1758487;80;20128;-72
2022/03/06 01:11:05;;;;;;;2.33;1.67;;;;;;;0.11;63.86;100921.67;1758140;80;21062;-68
2022/03/06 01:13:35;;;;;;;2.37;2.17;;;;;;;0.14;63.55;100925.41;1758514;81;21017;-70
2022/03/06 01:16:01;;;;;;;2.02;1.90;;;;;;;0.16;63.53;100924.83;1758737;81;20965;-64
2022/03/06 01:18:30;;;;;;;2.40;1.43;;;;;;;0.18;63.33;100917.69;1758160;81;21045;-68
2022/03/06 01:20:58;;;;;;;2.03;1.93;;;;;;;0.16;63.30;100922.20;1758319;81;21544;-72
2022/03/06 01:23:24;;;;;;;;;;;;;;;0.15;63.25;100924.92;1761270;81;20989;-65
2022/03/06 01:25:52;;;;;;;1.85;1.67;;;;;;;0.13;63.28;100925.06;1758596;81;20468;-66
2022/03/06 01:28:19;;;;;;;2.13;2.00;;;;;;;0.08;63.11;100925.84;1758428;81;21104;-66
2022/03/06 01:30:46;;;;;;;1.73;1.33;;;;;;;0.12;62.90;100929.92;1757607;81;21093;-65
2022/03/06 01:33:15;;;;;;;2.57;2.07;;;;;;;0.13;62.82;100929.44;1758319;81;21005;-68
2022/03/06 01:35:42;;;;;;;1.83;1.73;;;;;;;0.14;62.84;100933.27;1758746;81;21039;-65
2022/03/06 01:38:09;;;;;;;;;;;;;;;0.15;62.85;100929.72;1761223;81;21159;-66
2022/03/06 01:40:37;;;;;;;2.17;1.30;;;;;;;0.21;62.78;100928.91;1757341;80;20260;-69
2022/03/06 01:43:04;;;;;;;;;;;;;;;0.19;62.98;100928.55;1761591;81;20965;-65
2022/03/06 01:45:31;;;;;;;3.77;1.50;;;;;;;0.25;62.99;100935.64;1758239;80;20399;-64
2022/03/06 01:47:59;;;;;;;;;;;;;;;0.17;62.87;100933.07;1761139;81;21109;-75
2022/03/06 01:50:28;;;;;;;;;;;;;;;0.16;63.15;100931.38;1761236;81;20533;-68
2022/03/06 01:52:56;;;;;;;2.80;2.03;;;;;;;0.12;63.39;100928.61;1756604;81;20108;-66
2022/03/06 01:55:25;;;;;;;1.93;1.77;;;;;;;0.11;63.49;100932.64;1758468;81;21220;-70
2022/03/06 01:57:57;;;;;;;2.40;2.00;;;;;;;0.14;63.55;100933.27;1758746;81;21050;-67
2022/03/06 02:00:31;;;;;;;2.70;2.50;;;;;;;0.17;63.68;100934.83;1758557;81;21069;-65
2022/03/06 02:02:59;;;;;;;2.33;1.63;;;;;;;0.21;63.62;100934.15;1752708;81;21530;-65
2022/03/06 02:05:26;;;;;;;2.20;2.00;;;;;;;0.21;63.39;100937.63;1728191;81;21535;-65
2022/03/06 02:07:53;;;;;;;1.70;1.43;;;;;;;0.20;62.95;100930.70;1733690;81;21130;-67
2022/03/06 02:10:22;;;;;;;2.03;1.20;;;;;;;0.18;62.66;100933.91;1751599;81;21105;-67
2022/03/06 02:12:50;;;;;;;2.10;1.10;;;;;;;0.14;61.45;100933.27;1737796;81;21047;-67
2022/03/06 02:15:18;;;;;;;2.40;0.80;;;;;;;0.04;60.89;100934.86;1758497;81;21232;-65
2022/03/06 02:17:46;;;;;;;0.93;0.80;;;;;;;-0.03;60.76;100929.67;1758519;81;21458;-65
2022/03/06 02:20:20;;;;;;;1.13;0.73;;;;;;;-0.15;60.49;100929.19;1750543;81;21564;-67
2022/03/06 02:22:51;;;;;;;1.13;0.43;;;;;;;-0.20;60.73;100930.83;1746883;81;20989;-63
2022/03/06 02:25:22;;;;;;;1.03;0.73;;;;;;;-0.23;60.80;100921.85;1758316;81;21707;-75
2022/03/06 02:27:52;;;;;;;1.33;0.73;;;;;;;-0.22;61.02;100927.47;1758352;81;21500;-64
2022/03/06 02:30:23;;;;;;;0.90;0.90;;;;;;;-0.20;60.96;100925.11;1758349;81;21010;-68
2022/03/06 02:32:52;;;;;;;0.93;0.60;;;;;;;-0.18;60.83;100932.86;1758617;81;21514;-64
2022/03/06 02:35:20;;;;;;;0.80;0.43;;;;;;;-0.17;60.74;100933.70;1754662;81;21517;-68
2022/03/06 02:37:48;;;;;;;2.20;0.90;;;;;;;-0.16;60.65;100935.39;1757063;81;21502;-65
2022/03/06 02:40:16;;;;;;;1.27;0.70;;;;;;;-0.15;60.46;100935.73;1757264;81;21079;-70
2022/03/06 02:42:46;;;;;;;1.03;0.93;;;;;;;-0.16;60.57;100939.31;1758869;81;21052;-65
2022/03/06 02:45:17;;;;;;;0.80;0.70;;;;;;;-0.18;60.74;100943.83;1756942;81;21085;-65
2022/03/06 02:47:46;;;;;;;1.10;1.03;;;;;;;-0.17;60.84;100951.59;1745302;81;20983;-63
2022/03/06 02:50:22;;;;;;;1.10;0.60;;;;;;;-0.16;60.88;100952.42;1758736;81;20985;-70
2022/03/06 02:52:49;;;;;;;1.63;1.23;;;;;;;-0.16;60.70;100949.31;1757617;81;22210;-64
2022/03/06 02:55:17;;;;;;;2.97;0.87;;;;;;;-0.18;60.62;100946.45;1758391;81;21036;-70
2022/03/06 02:57:45;;;;;;;0.70;0.50;;;;;;;-0.21;60.64;100954.89;1758080;81;21179;-64
2022/03/06 03:00:16;;;;;;;1.80;0.80;;;;;;;-0.27;60.64;100951.34;1758338;81;20994;-64
2022/03/06 03:02:43;;;;;;;0.80;0.77;;;;;;;-0.28;60.69;100954.09;1758312;81;21003;-66
2022/03/06 03:05:12;;;;;;;2.03;1.40;;;;;;;-0.30;60.52;100955.50;1758616;81;21553;-65
2022/03/06 03:07:44;;;;;;;1.57;1.17;;;;;;;-0.33;60.58;100953.08;1758344;81;21156;-68
2022/03/06 03:10:13;;;;;;;1.00;1.00;;;;;;;-0.33;60.83;100944.39;1758623;81;20967;-69
2022/03/06 03:12:42;;;;;;;3.20;1.70;;;;;;;-0.28;60.99;100953.61;1737147;81;21083;-70
2022/03/06 03:15:11;;;;;;;1.57;0.90;;;;;;;-0.21;60.67;100948.33;1758653;81;21017;-70
2022/03/06 03:17:38;;;;;;;2.17;1.30;;;;;;;-0.17;60.70;100953.34;1758603;81;21014;-65
2022/03/06 03:20:07;;;;;;;2.63;0.80;;;;;;;-0.13;60.57;100954.36;1758290;81;21033;-78
2022/03/06 03:22:35;;;;;;;1.37;1.27;;;;;;;-0.13;60.51;100954.81;1758552;81;21025;-64
2022/03/06 03:25:02;;;;;;;2.87;0.70;;;;;;;-0.11;60.41;100950.33;1758216;81;21341;-70
2022/03/06 03:27:29;;;;;;;1.87;0.80;;;;;;;-0.13;60.44;100952.19;1758313;81;21022;-68
2022/03/06 03:29:56;;;;;;;0.73;0.60;;;;;;;-0.12;60.31;100950.78;1758441;81;21026;-65
2022/03/06 03:32:23;;;;;;;0.60;0.50;;;;;;;-0.18;59.96;100952.52;1758536;81;21034;-66
2022/03/06 03:34:50;;;;;;;1.27;0.90;;;;;;;-0.20;59.98;100955.23;1758419;81;21002;-64
2022/03/06 03:37:17;;;;;;;2.93;1.30;;;;;;;-0.23;60.07;100958.53;1758559;81;21939;-65
2022/03/06 03:39:45;;;;;;;2.60;0.63;;;;;;;-0.19;59.90;100961.31;1757177;81;21017;-64
2022/03/06 03:42:12;;;;;;;1.67;1.57;;;;;;;-0.20;59.86;100963.58;1758250;81;21080;-64
2022/03/06 03:44:39;;;;;;;1.43;0.90;;;;;;;-0.18;59.61;100959.55;1758174;81;21039;-69
2022/03/06 03:47:07;;;;;;;1.73;0.60;;;;;;;-0.22;58.96;100957.60;1758384;81;21496;-65
2022/03/06 03:49:35;;;;;;;1.50;0.70;;;;;;;-0.25;58.88;100956.00;1758498;81;21002;-65
2022/03/06 03:52:03;;;;;;;0.90;0.80;;;;;;;-0.32;58.92;100957.39;1758452;81;21065;-68
2022/03/06 03:54:30;;;;;;;0.70;0.50;;;;;;;-0.35;59.02;100954.13;1758783;80;21458;-66
2022/03/06 03:56:57;;;;;;;1.70;1.00;;;;;;;-0.41;59.07;100949.66;1758798;81;20986;-71
2022/03/06 03:59:23;;;;;;;;;;;;;;;-0.49;58.70;100940.62;1761434;81;21033;-70
2022/03/06 04:01:52;;;;;;;2.00;0.97;;;;;;;-0.43;58.61;100958.58;1758434;81;20120;-64
2022/03/06 04:04:20;;;;;;;0.80;0.80;;;;;;;-0.50;58.58;100962.53;1758321;81;21065;-68
2022/03/06 04:06:47;;;;;;;1.03;0.50;;;;;;;-0.52;58.66;100960.02;1758384;81;21006;-64
2022/03/06 04:09:15;;;;;;;0.93;0.90;;;;;;;-0.56;58.47;100959.02;1758696;81;21084;-65
2022/03/06 04:11:42;;;;;;;0.80;0.80;;;;;;;-0.54;58.59;100959.75;1756863;81;21068;-68
2022/03/06 04:14:08;;;;;;;0.80;0.80;;;;;;;-0.59;58.50;100956.95;1757811;81;21003;-64
2022/03/06 04:16:35;;;;;;;0.83;0.63;;;;;;;-0.60;58.43;100963.14;1757282;81;21046;-65
2022/03/06 04:19:02;;;;;;;;;;;;;;;-0.60;58.66;100963.14;1761003;81;21064;-66
2022/03/06 04:21:31;;;;;;;2.03;1.03;;;;;;;-0.56;58.68;100963.78;1758653;80;20157;-66
2022/03/06 04:23:59;;;;;;;3.17;1.13;;;;;;;-0.57;58.63;100966.02;1757110;81;21013;-64
2022/03/06 04:26:26;;;;;;;0.87;0.40;;;;;;;-0.56;58.57;100971.64;1758167;81;21032;-65
2022/03/06 04:28:53;;;;;;;1.13;0.70;;;;;;;-0.53;58.71;100969.27;1757425;81;21124;-66
2022/03/06 04:31:20;;;;;;;1.32;0.75;;;;;;;-0.52;58.66;100977.03;1758488;81;20997;-64
2022/03/06 04:33:46;;;;;;;1.25;1.15;;;;;;;-0.48;58.62;100978.50;1758807;81;21024;-65
2022/03/06 04:36:13;;;;;;;;;;;;;;;-0.45;58.50;100981.41;1761106;81;21038;-66
2022/03/06 04:38:56;;;;;;;1.33;0.40;;;;;;;-0.45;58.61;100979.63;1662638;85;20117;-64
2022/03/06 04:41:23;;;;;;;0.73;0.50;;;;;;;-0.45;58.83;100982.24;1676938;85;21005;-64
2022/03/06 04:43:53;;;;;;;0.63;0.57;;;;;;;-0.43;58.82;100988.69;1679624;85;21080;-64
2022/03/06 04:46:20;;;;;;;1.80;0.60;;;;;;;-0.38;58.54;100991.00;1657677;85;21030;-65
2022/03/06 04:48:47;;;;;;;0.73;0.60;;;;;;;-0.41;58.41;100986.33;1662078;85;21102;-70
2022/03/06 04:51:15;;;;;;;0.50;0.50;;;;;;;-0.38;57.77;100991.00;1676766;85;21000;-64
2022/03/06 04:53:43;;;;;;;0.40;0.40;;;;;;;-0.38;57.73;100994.45;1679529;85;21193;-67
2022/03/06 04:56:11;;;;;;;0.70;0.50;;;;;;;-0.39;57.48;100990.16;1676878;85;21052;-64
2022/03/06 04:58:39;;;;;;;1.03;0.40;;;;;;;-0.41;57.42;100992.87;1679613;85;21096;-64
2022/03/06 05:01:06;;;;;;;1.02;0.70;;;;;;;-0.50;57.67;100987.41;1662810;85;21001;-65
2022/03/06 05:03:34;;;;;;;0.50;0.50;;;;;;;-0.53;57.94;100996.77;1662788;85;21079;-66
2022/03/06 05:06:00;;;;;;;1.77;0.57;;;;;;;-0.57;57.96;100995.30;1646332;87;21164;-64
2022/03/06 05:08:27;;;;;;;;;;;;;;;-0.55;58.11;100995.55;1639417;87;21076;-71
2022/03/06 05:10:56;;;;;;;0.77;0.60;;;;;;;-0.56;57.71;101000.92;1648302;87;20127;-65
2022/03/06 05:13:25;;;;;;;1.97;0.60;;;;;;;-0.53;57.64;101000.22;1640336;87;21048;-66
2022/03/06 05:15:52;;;;;;;0.80;0.80;;;;;;;-0.50;57.41;101000.51;1642454;87;21084;-68
2022/03/06 05:18:19;;;;;;;1.03;0.57;;;;;;;-0.44;57.14;100994.86;1623923;87;21147;-69
2022/03/06 05:20:46;;;;;;;3.10;1.63;;;;;;;-0.35;57.11;100998.19;1640180;87;21088;-65
2022/03/06 05:23:13;;;;;;;1.70;0.80;;;;;;;-0.22;56.82;100993.80;1631904;86;21057;-65
2022/03/06 05:25:39;;;;;;;;;;;;;;;-0.14;56.69;100992.45;1652972;86;21113;-67
2022/03/06 05:28:06;;;;;;;1.37;0.80;;;;;;;-0.05;56.56;100993.16;1632076;87;20117;-65
2022/03/06 05:30:33;;;;;;;0.80;0.70;;;;;;;-0.03;56.49;100992.09;1650684;87;21097;-64
2022/03/06 05:32:59;;;;;;;1.77;1.60;;;;;;;0.07;56.14;100992.30;1650506;86;21097;-64
2022/03/06 05:35:26;;;;;;;2.08;1.30;;;;;;;0.14;55.99;100994.88;1680273;84;21032;-66
2022/03/06 05:37:53;;;;;;;;;;;;;;;0.22;55.07;100996.97;1680342;85;21078;-66
2022/03/06 05:40:19;;;;;;;3.30;1.70;;;;;;;0.17;55.11;100989.44;1689798;84;20462;-67
2022/03/06 05:42:46;;;;;;;2.97;1.43;;;;;;;0.14;55.20;100997.50;1681830;85;21681;-66
2022/03/06 05:45:13;;;;;;;2.62;0.93;;;;;;;0.12;55.14;101005.95;1685439;85;21097;-77
2022/03/06 05:47:41;;;;;;;0.67;0.50;;;;;;;0.15;55.31;101001.81;1683599;84;21098;-64
2022/03/06 05:50:09;;;;;;;1.40;0.70;;;;;;;0.14;55.51;101000.13;1664901;85;21214;-65
2022/03/06 05:52:35;;;;;;;1.33;1.23;;;;;;;0.20;55.31;100997.55;1686757;83;21081;-65
2022/03/06 05:55:04;;;;;;;1.95;1.25;;;;;;;0.23;55.31;101001.29;1708958;83;21060;-66
2022/03/06 05:57:31;;;;;;;2.20;1.33;;;;;;;0.32;55.60;101005.91;1689886;84;21074;-65
2022/03/06 05:59:59;;;;;;;;;;;;;;;0.38;55.08;101005.47;1672607;85;21358;-71
2022/03/06 06:02:25;;;;;;;2.90;1.05;;;;;;;0.37;54.96;101007.72;1709942;83;20139;-64
2022/03/06 06:04:54;;;;;;;1.90;1.10;;;;;;;0.24;55.35;101002.95;1689578;84;21094;-63
2022/03/06 06:07:20;;;;;;;2.10;0.95;;;;;;;0.25;55.51;101007.75;1670082;84;21491;-63
2022/03/06 06:09:47;;;;;;;1.60;1.07;;;;;;;0.23;55.56;101008.30;1670987;85;21100;-67
2022/03/06 06:12:14;;;;;;;2.47;1.33;;;;;;;0.19;55.75;101009.00;1689684;84;21133;-65
2022/03/06 06:14:41;;;;;;;;;;;;;;;0.09;56.46;101012.70;1692087;85;21038;-64
2022/03/06 06:17:08;;;;;;;2.02;1.12;;;;;;;0.08;56.72;101009.72;1689766;84;20139;-65
2022/03/06 06:19:35;;;;;;;;;;;;;;;0.08;57.10;101008.41;1689006;84;21073;-65
2022/03/06 06:22:03;;;;;;;1.12;0.95;;;;;;;0.12;57.67;101016.43;1674087;85;20211;-65
2022/03/06 06:24:32;;;;;;;1.10;0.70;;;;;;;0.09;58.42;101014.48;1688892;85;21174;-68
2022/03/06 06:26:59;;;;;;;1.80;0.93;;;;;;;0.02;58.86;101014.53;1665924;84;21046;-70
2022/03/06 06:29:26;;;;;;;3.15;1.67;;;;;;;-0.02;59.15;101018.69;1675978;85;21065;-65
2022/03/06 06:31:52;;;;;;;3.50;3.00;;;;;;;-0.08;59.75;101021.70;1666811;84;21159;-67
2022/03/06 06:34:20;;;;;;;;;;;;;;;-0.11;60.18;101019.78;1675993;85;21011;-68
2022/03/06 06:36:49;;;;;;;4.13;1.30;;;;;;;-0.15;60.74;101019.14;1689820;84;20143;-68
2022/03/06 06:39:16;;;;;;;2.10;1.13;;;;;;;-0.22;61.97;101021.80;1664854;84;21107;-65
2022/03/06 06:41:44;;;;;;;2.03;1.83;;;;;;;-0.23;62.77;101023.59;1675556;85;21103;-67
2022/03/06 06:44:11;;;;;;;3.30;1.95;;;;;;;-0.29;63.43;101018.73;1686713;84;21454;-71
2022/03/06 06:46:38;;;;;;;2.00;1.70;;;;;;;-0.41;63.40;101004.67;1662221;85;21817;-70
2022/03/06 06:49:05;;;;;;;2.87;2.30;;;;;;;-0.37;64.33;101021.02;1682542;85;21010;-70
2022/03/06 06:51:34;;;;;;;2.57;1.93;;;;;;;-0.38;65.06;101019.81;1688535;85;21110;-64
2022/03/06 06:54:01;;;;;;;4.47;2.80;;;;;;;-0.43;65.76;101022.74;1707192;83;21066;-66
2022/03/06 06:56:28;;;;;;;3.87;3.50;;;;;;;-0.43;65.67;101025.36;1691637;83;21008;-66
2022/03/06 06:58:56;;;;;;;3.93;3.10;;;;;;;-0.36;65.71;101017.45;1689622;84;21061;-65
2022/03/06 07:01:22;;;;;;;;;;;;;;;-0.24;65.48;101016.66;1692365;84;21069;-69
2022/03/06 07:03:49;;;;;;;3.27;2.30;;;;;;;-0.09;65.43;101014.80;1687464;85;20159;-68
2022/03/06 07:06:16;;;;;;;3.80;2.27;;;;;;;-0.05;65.49;101017.57;1670037;84;21120;-64
2022/03/06 07:08:43;;;;;;;3.63;2.90;;;;;;;0.07;65.51;101023.76;1689646;85;21749;-64
2022/03/06 07:11:10;;;;;;;4.67;3.00;;;;;;;0.18;65.69;101023.05;1687517;85;22099;-69
2022/03/06 07:13:38;;;;;;;4.10;2.43;;;;;;;0.27;65.45;101021.59;1676548;85;21074;-68
2022/03/06 07:16:06;;;;;;;4.00;2.50;;;;;;;0.32;65.31;101018.16;1683672;85;21603;-65
2022/03/06 07:18:33;;;;;;;5.13;2.50;;;;;;;0.43;64.67;101023.50;1678849;84;21087;-66
2022/03/06 07:22:41;;;;;;;4.30;2.27;;;;;;;0.63;64.01;101015.56;1791206;78;22289;-66
2022/03/06 07:25:09;;;;;;;3.37;2.60;;;;;;;0.73;63.84;101020.52;1687666;83;21569;-65
2022/03/06 07:27:36;;;;;;;3.00;2.20;;;;;;;0.89;63.05;101015.05;1684296;83;21009;-65
2022/03/06 07:30:04;;;;;;;4.07;2.53;;;;;;;0.97;62.46;101013.19;1656588;85;21041;-65
2022/03/06 07:32:31;;;;;;;2.27;2.07;;;;;;;0.86;62.50;101015.25;1658857;85;21049;-69
2022/03/06 07:34:58;;;;;;;3.20;2.30;;;;;;;0.80;62.62;101013.07;1663521;86;21023;-69
2022/03/06 07:37:26;;;;;;;2.30;2.10;;;;;;;0.82;62.75;101010.34;1640375;86;21069;-66
2022/03/06 07:39:52;;;;;;;3.55;2.37;;;;;;;0.90;62.51;101016.70;1653445;85;21158;-64
2022/03/06 07:42:19;;;;;;;3.43;2.37;;;;;;;0.94;62.17;101009.45;1683782;84;21041;-66
2022/03/06 07:44:46;;;;;;;2.60;2.40;;;;;;;1.04;61.77;101013.60;1677594;85;21031;-67
2022/03/06 07:47:12;;;;;;;;;;;;;;;1.11;62.05;101015.67;1679208;84;21717;-66
2022/03/06 07:49:40;;;;;;;6.75;2.95;;;;;;;1.22;61.45;101012.25;1675446;84;20184;-65
2022/03/06 07:52:07;;;;;;;3.70;3.40;;;;;;;1.14;60.82;101017.22;1676681;84;21011;-65
2022/03/06 07:54:35;;;;;;;5.63;4.27;;;;;;;1.05;60.72;101006.90;1674889;84;21093;-69
2022/03/06 07:57:02;;;;;;;;;;;;;;;1.05;61.18;101010.84;1670675;84;21050;-65
2022/03/06 07:59:29;;;;;;;4.77;3.33;;;;;;;1.17;61.06;101010.45;1665985;85;20159;-66
2022/03/06 08:01:57;;;;;;;5.10;3.97;;;;;;;1.22;61.19;101005.69;1662987;84;21342;-66
2022/03/06 08:04:23;;;;;;;;;;;;;;;1.38;60.62;101003.27;1678435;85;21018;-66
2022/03/06 08:06:52;;;;;;;3.45;3.15;;;;;;;1.48;60.09;101000.32;1687768;85;20130;-67
2022/03/06 08:09:19;;;;;;;3.63;3.03;;;;;;;1.51;59.54;100998.80;1658738;84;21063;-70
2022/03/06 08:11:47;;;;;;;3.73;3.10;;;;;;;1.58;59.55;100994.73;1660990;84;21545;-65
2022/03/06 08:14:14;;;;;;;4.40;4.00;;;;;;;1.70;58.53;100993.83;1655187;86;21559;-65
2022/03/06 08:16:41;;;;;;;6.83;3.70;;;;;;;1.72;57.70;100993.24;1608841;88;21077;-67
2022/03/06 08:19:09;;;;;;;4.67;4.00;;;;;;;1.67;58.06;100987.97;1622110;88;21608;-65
2022/03/06 08:21:35;;;;;;;4.23;3.70;;;;;;;1.63;58.45;100988.67;1625430;88;22330;-71
2022/03/06 08:24:04;;;;;;;4.33;3.90;;;;;;;1.69;58.41;100984.26;1635978;85;22073;-70
2022/03/06 08:26:33;;;;;;;4.50;3.47;;;;;;;1.74;57.57;100978.19;1655446;86;21056;-64
2022/03/06 08:29:00;;;;;;;;;;;;;;;1.70;57.04;100975.92;1630568;86;21150;-65
2022/03/06 08:31:27;;;;;;;4.60;3.70;;;;;;;1.62;57.04;100982.20;1646367;86;20191;-66
2022/03/06 08:33:54;;;;;;;3.80;3.30;;;;;;;1.49;57.56;100981.83;1624472;86;22140;-68
2022/03/06 08:36:21;;;;;;;5.10;3.87;;;;;;;1.58;57.88;100982.08;1652894;86;21106;-66
2022/03/06 08:38:48;;;;;;;4.67;4.17;;;;;;;1.67;57.34;100982.71;1637711;87;21577;-65
2022/03/06 08:41:15;;;;;;;4.45;4.03;;;;;;;1.71;57.01;100977.58;1659281;85;22218;-69
2022/03/06 08:43:44;;;;;;;4.50;4.10;;;;;;;1.71;57.24;100973.19;1667288;85;21567;-66
2022/03/06 08:46:12;;;;;;;3.47;3.10;;;;;;;1.78;57.10;100974.03;1663514;84;21018;-65
2022/03/06 08:48:40;;;;;;;5.30;4.80;;;;;;;1.82;57.12;100968.89;1661454;85;21603;-64
2022/03/06 08:51:07;;;;;;;8.10;4.80;;;;;;;1.87;56.56;100976.80;1661481;84;21033;-67
2022/03/06 08:53:34;;;;;;;4.63;4.13;;;;;;;1.87;56.80;100966.77;1683079;84;20987;-65
2022/03/06 08:56:00;;;;;;;4.60;3.40;;;;;;;1.96;56.47;100963.44;1663784;83;21277;-64
2022/03/06 08:58:28;;;;;;;3.30;3.00;;;;;;;2.06;55.70;100968.34;1658788;85;21032;-64
2022/03/06 09:00:57;;;;;;;4.07;3.77;;;;;;;2.11;55.27;100970.60;1662606;85;21056;-70
2022/03/06 09:03:24;;;;;;;3.13;2.83;;;;;;;2.15;55.23;100961.55;1669062;84;21101;-67
2022/03/06 09:05:51;;;;;;;;;;;;;;;2.17;55.13;100966.66;1655557;85;21523;-66
2022/03/06 09:08:19;;;;;;;4.23;3.67;;;;;;;2.24;55.02;100966.55;1639026;85;20209;-71
2022/03/06 09:10:46;;;;;;;6.17;4.50;;;;;;;2.16;55.18;100964.52;1646396;85;21057;-66
2022/03/06 09:13:13;;;;;;;4.05;3.37;;;;;;;2.18;55.27;100963.92;1679158;84;21112;-65
2022/03/06 09:15:41;;;;;;;4.87;4.40;;;;;;;2.22;55.14;100961.89;1679751;84;21062;-67
2022/03/06 09:18:08;;;;;;;;;;;;;;;2.25;54.86;100951.97;1688957;84;21136;-64
2022/03/06 09:20:36;;;;;;;4.93;3.87;;;;;;;2.19;54.51;100956.89;1640695;86;20438;-66
2022/03/06 09:23:05;;;;;;;;;;;;;;;2.11;54.72;100966.20;1634729;86;21062;-66
2022/03/06 09:25:33;;;;;;;11.43;6.60;;;;;;;2.10;54.82;100962.37;1649955;86;20190;-65
2022/03/06 09:28:01;;;;;;;6.70;5.47;;;;;;;2.06;55.19;100958.30;1715563;83;21097;-65
2022/03/06 09:30:28;;;;;;;13.73;6.20;;;;;;;2.05;55.32;100957.45;1701952;83;21080;-64
2022/03/06 09:32:58;;;;;;;7.50;5.63;;;;;;;2.08;55.42;100962.97;1700820;83;21083;-64
2022/03/06 09:35:25;;;;;;;6.87;4.20;;;;;;;2.13;55.06;100956.40;1700387;83;21066;-77
2022/03/06 09:37:52;;;;;;;7.00;4.00;;;;;;;2.03;55.19;100958.05;1696469;83;21124;-64
2022/03/06 09:40:19;;;;;;;3.87;3.47;;;;;;;1.95;55.50;100959.12;1684464;83;21124;-75
2022/03/06 09:42:46;;;;;;;5.70;4.33;;;;;;;1.96;55.82;100958.18;1699523;83;21168;-65
2022/03/06 09:45:14;;;;;;;;;;;;;;;1.97;56.27;100958.52;1710446;83;21004;-64
2022/03/06 09:47:42;;;;;;;4.78;4.33;;;;;;;1.95;55.84;100953.38;1703810;83;20162;-70
2022/03/06 09:50:12;;;;;;;4.53;3.57;;;;;;;1.92;55.95;100957.58;1698002;83;21017;-64
2022/03/06 09:52:39;;;;;;;6.20;3.93;;;;;;;1.92;55.84;100961.52;1697125;83;21607;-70
2022/03/06 09:55:08;;;;;;;4.97;3.93;;;;;;;1.93;55.86;100954.45;1706148;83;21080;-65
2022/03/06 09:57:34;;;;;;;5.90;3.37;;;;;;;1.91;55.89;100955.05;1690673;83;21012;-64
2022/03/06 10:00:06;;;;;;;6.57;4.87;;;;;;;1.91;55.89;100952.42;1689222;83;21581;-66
2022/03/06 10:02:54;;;;;;;5.40;4.90;;;;;;;1.90;55.87;100949.42;1678669;83;21059;-67
2022/03/06 10:05:37;;;;;;;6.62;4.83;;;;;;;1.81;55.79;100954.06;1693638;84;21640;-69
2022/03/06 10:08:28;;;;;;;5.10;4.60;;;;;;;1.73;56.02;100952.02;1657952;85;21075;-64
2022/03/06 10:11:03;;;;;;;8.27;5.80;;;;;;;1.64;56.54;100936.48;1635827;86;21131;-68
2022/03/06 10:13:33;;;;;;;7.43;6.30;;;;;;;1.79;56.31;100948.09;1634845;86;21054;-66
2022/03/06 10:16:19;;;;;;;7.20;6.47;;;;;;;1.84;56.12;100938.89;1657365;85;21094;-70
2022/03/06 10:18:50;;;;;;;7.20;6.17;;;;;;;1.88;56.19;100935.56;1657542;85;21050;-65
2022/03/06 10:21:32;;;;;;;10.13;7.00;;;;;;;1.95;55.98;100932.34;1659637;86;21042;-67
2022/03/06 10:24:08;;;;;;;9.90;6.83;;;;;;;1.98;55.88;100929.97;1623482;85;21320;-66
2022/03/06 10:26:37;;;;;;;9.17;6.90;;;;;;;2.08;55.70;100931.41;1658891;84;21049;-65
2022/03/06 10:29:11;;;;;;;12.70;8.87;;;;;;;2.14;55.48;100923.86;1673595;84;21062;-65
2022/03/06 10:31:58;;;;;;;11.40;8.53;;;;;;;2.22;55.16;100929.02;1674271;84;21098;-65
2022/03/06 10:34:41;;;;;;;11.73;7.13;;;;;;;2.32;55.14;100922.09;1675896;84;21545;-66
2022/03/06 10:37:14;;;;;;;12.93;8.73;;;;;;;2.39;54.81;100911.91;1658437;84;21030;-64
2022/03/06 10:39:46;;;;;;;11.97;8.70;;;;;;;2.44;54.49;100902.69;1674043;84;21068;-65
2022/03/06 10:42:22;;;;;;;13.90;10.97;;;;;;;2.43;53.53;100911.56;1672676;83;21066;-67
2022/03/06 10:44:50;;;;;;;14.13;10.70;;;;;;;2.41;53.85;100908.22;1704735;82;21091;-66
2022/03/06 10:47:17;;;;;;;12.20;10.08;;;;;;;2.43;54.33;100910.24;1718472;83;21039;-66
2022/03/06 10:50:05;;;;;;;13.20;10.35;;;;;;;2.55;54.82;100909.73;1708874;83;21562;-70
2022/03/06 10:52:43;;;;;;;13.57;10.60;;;;;;;2.67;53.89;100911.86;1698414;83;21073;-67
2022/03/06 10:55:10;;;;;;;12.83;10.33;;;;;;;2.68;53.32;100905.16;1698413;83;21025;-67
2022/03/06 10:57:37;;;;;;;15.37;10.70;;;;;;;2.70;53.22;100893.20;1697294;83;21005;-66
2022/03/06 11:00:07;;;;;;;13.67;11.90;;;;;;;2.71;52.88;100893.55;1707306;82;21170;-66
2022/03/06 11:02:36;;;;;;;12.70;10.70;;;;;;;2.75;52.62;100887.55;1674000;84;21005;-64
2022/03/06 11:05:05;;;;;;;13.53;11.60;;;;;;;2.79;52.22;100887.20;1663083;84;21547;-65
2022/03/06 11:07:33;;;;;;;13.43;11.40;;;;;;;2.78;51.69;100886.00;1665848;84;21553;-65
2022/03/06 11:10:00;;;;;;;16.70;11.03;;;;;;;2.75;50.40;100885.78;1673759;84;22210;-71
2022/03/06 11:12:29;;;;;;;14.43;11.40;;;;;;;2.69;50.31;100884.94;1652874;85;21102;-64
2022/03/06 11:14:59;;;;;;;18.37;13.60;;;;;;;2.65;49.98;100882.20;1679731;84;21066;-65
2022/03/06 11:17:26;;;;;;;19.17;12.57;;;;;;;2.53;50.25;100888.80;1699329;84;21096;-70
2022/03/06 11:19:53;;;;;;;15.13;12.23;;;;;;;2.46;50.92;100887.61;1677095;84;21593;-65
2022/03/06 11:22:27;;;;;;;13.13;10.50;;;;;;;2.41;51.69;100881.91;1672214;84;21104;-65
2022/03/06 11:25:03;;;;;;;14.90;10.67;;;;;;;2.43;52.11;100885.25;1710347;83;21539;-64
2022/03/06 11:28:13;;;;;;;12.63;10.10;;;;;;;2.40;52.35;100889.42;1672540;84;21045;-66
2022/03/06 11:30:41;;;;;;;12.27;10.00;;;;;;;2.39;52.45;100886.42;1688305;83;21088;-72
2022/03/06 11:33:10;;;;;;;13.10;10.10;;;;;;;2.30;52.62;100884.55;1673544;84;21111;-65
2022/03/06 11:35:43;;;;;;;16.77;11.97;;;;;;;2.24;52.68;100881.06;1680164;84;21109;-65
2022/03/06 11:38:13;;;;;;;15.17;10.53;;;;;;;2.13;52.85;100877.50;1687854;85;21124;-65
2022/03/06 11:40:55;;;;;;;13.87;9.17;;;;;;;2.08;53.19;100879.64;1677047;84;21081;-69
2022/03/06 11:43:38;;;;;;;11.30;8.63;;;;;;;2.00;53.06;100872.84;1690358;85;21110;-66
2022/03/06 11:46:22;;;;;;;11.43;9.30;;;;;;;1.97;52.81;100876.19;1687035;83;21047;-64